Boyce, Louisiana
Current Conditions -  °F | °C
As of 2:53 PM on Saturday 22 Nov 2014 (Local Time) from KAEX Reporting Station
Broken Clouds Broken Clouds  
Wind Chill: 69°   Ceiling: 5000
Heat Index: 69°   Visibility: 10mi
Dew Point: 57°   Wind: 18mph
Humidity: 65%   Direction: 130°SE
Pressure: 29.98"   Gusts: NA
Location:  31.39°N, 92.67°W
Report Text: KAEX 222053Z AUTO 13016KT 10SM BKN050 21/14 A2998 RMK AO2 SLP155 T02060139 58037
Loading
Personal Weather Stations






























Interactive Weather Map New forecast layout! Learn more

10-Day Weather Forecast

Advertisements
Track Severe Weather on mobile